Time,TemperatureF,DewpointF,PressureIn,WindDirection,WindDirectionDegrees,WindSpeedMPH,WindSpeedGustMPH,Humidity,HourlyPrecipIn,Conditions,Clouds,dailyrainin,SoftwareType,DateUTC
2013-10-11 00:01:00,56.3,55.7,30.02,NNE,22,0.0,0.0,98,0.17,RA,,0.00,WeatherDisplay:10.37,2013-10-11 04:01:00,
2013-10-11 00:02:00,56.3,55.7,30.01,East,90,0.0,0.0,98,0.14,RA,,0.01,WeatherDisplay:10.37,2013-10-11 04:02:00,
2013-10-11 00:07:00,56.3,55.7,30.01,ESE,112,0.0,0.0,98,0.12,RA,,0.01,WeatherDisplay:10.37,2013-10-11 04:07:00,
2013-10-11 00:12:00,56.1,55.5,30.01,ENE,68,0.0,0.0,98,0.13,RA,,0.03,WeatherDisplay:10.37,2013-10-11 04:12:00,
2013-10-11 00:17:00,56.1,55.5,30.01,ESE,112,0.0,0.0,98,0.14,RA,,0.04,WeatherDisplay:10.37,2013-10-11 04:17:00,
2013-10-11 00:22:00,56.1,55.5,30.01,SE,135,0.0,0.0,98,0.13,RA,,0.04,WeatherDisplay:10.37,2013-10-11 04:22:00,
2013-10-11 00:27:00,56.1,55.5,30.02,NNE,22,0.0,0.0,98,0.12,RA,,0.06,WeatherDisplay:10.37,2013-10-11 04:27:00,
2013-10-11 00:32:00,56.1,55.5,30.02,WNW,292,0.0,0.0,98,0.13,RA,,0.08,WeatherDisplay:10.37,2013-10-11 04:32:00,
2013-10-11 00:37:00,56.1,55.5,30.02,East,90,0.0,0.0,98,0.15,RA,,0.10,WeatherDisplay:10.37,2013-10-11 04:37:00,
2013-10-11 00:42:00,56.1,55.5,30.01,ESE,112,0.0,0.0,98,0.15,RA,,0.11,WeatherDisplay:10.37,2013-10-11 04:42:00,
2013-10-11 00:47:00,56.1,55.5,30.01,WSW,248,0.0,0.0,98,0.15,RA,,0.12,WeatherDisplay:10.37,2013-10-11 04:47:00,
2013-10-11 00:52:00,56.1,55.5,30.01,NE,45,0.0,0.0,98,0.16,RA,,0.13,WeatherDisplay:10.37,2013-10-11 04:52:00,
2013-10-11 00:57:00,56.1,55.5,30.01,WNW,292,0.0,0.0,98,0.17,RA,,0.15,WeatherDisplay:10.37,2013-10-11 04:57:00,
2013-10-11 01:02:00,56.1,55.5,30.01,SSW,202,0.0,0.0,98,0.17,RA,,0.17,WeatherDisplay:10.37,2013-10-11 05:02:00,
2013-10-11 01:07:00,56.1,55.5,30.01,NNW,338,0.0,0.0,98,0.17,RA,,0.19,WeatherDisplay:10.37,2013-10-11 05:07:00,
2013-10-11 01:12:00,56.1,55.5,30.01,South,180,0.0,0.0,98,0.19,RA,,0.22,WeatherDisplay:10.37,2013-10-11 05:12:00,
2013-10-11 01:17:00,56.1,55.5,30.02,North,360,0.0,0.0,98,0.19,RA,,0.23,WeatherDisplay:10.37,2013-10-11 05:17:00,
2013-10-11 01:22:00,56.1,55.5,30.02,NE,45,0.0,0.0,98,0.19,RA,,0.23,WeatherDisplay:10.37,2013-10-11 05:22:00,
2013-10-11 01:27:00,56.1,55.5,30.01,SSE,158,0.0,0.0,98,0.21,RA,,0.27,WeatherDisplay:10.37,2013-10-11 05:27:00,
2013-10-11 01:33:00,56.1,55.5,30.01,ESE,112,0.0,0.0,98,0.20,RA,,0.28,WeatherDisplay:10.37,2013-10-11 05:33:00,
2013-10-11 01:37:00,55.9,55.3,30.02,East,90,0.0,0.0,98,0.24, +RA,,0.35,WeatherDisplay:10.37,2013-10-11 05:37:00,
2013-10-11 01:43:00,55.9,55.3,30.02,NE,45,0.0,0.0,98,0.27, +RA,,0.38,WeatherDisplay:10.37,2013-10-11 05:43:00,
2013-10-11 01:48:00,55.9,55.3,30.02,North,360,0.0,0.0,98,0.29, +RA,,0.42,WeatherDisplay:10.37,2013-10-11 05:48:00,
2013-10-11 01:53:00,55.9,55.3,30.02,SSE,158,0.0,0.0,98,0.29, +RA,,0.42,WeatherDisplay:10.37,2013-10-11 05:53:00,
2013-10-11 01:58:00,55.9,55.3,30.02,ENE,68,0.0,0.0,98,0.27, +RA,,0.42,WeatherDisplay:10.37,2013-10-11 05:58:00,
2013-10-11 02:03:00,55.8,55.2,30.01,ESE,112,0.0,0.0,98,0.27, +RA,,0.44,WeatherDisplay:10.37,2013-10-11 06:03:00,
2013-10-11 02:08:00,55.8,55.2,30.01,East,90,0.0,0.0,98,0.27, +RA,,0.46,WeatherDisplay:10.37,2013-10-11 06:08:00,
2013-10-11 02:13:00,55.8,55.2,30.01,West,270,0.0,0.0,98,0.30, +RA,,0.52,WeatherDisplay:10.37,2013-10-11 06:13:00,
2013-10-11 02:18:00,55.8,55.2,30.01,ENE,68,0.0,0.0,98,0.29, +RA,,0.52,WeatherDisplay:10.37,2013-10-11 06:18:00,
2013-10-11 02:23:00,55.8,55.2,30.01,ENE,68,0.0,0.0,98,0.30, +RA,,0.53,WeatherDisplay:10.37,2013-10-11 06:23:00,
2013-10-11 02:28:00,55.6,55.0,30.00,NE,45,0.0,0.0,98,0.29, +RA,,0.56,WeatherDisplay:10.37,2013-10-11 06:28:00,
2013-10-11 02:33:00,55.4,54.8,30.00,East,90,0.0,0.0,98,0.29, +RA,,0.57,WeatherDisplay:10.37,2013-10-11 06:33:00,
2013-10-11 02:38:00,55.4,54.8,30.00,ESE,112,0.0,0.0,98,0.23, +RA,,0.58,WeatherDisplay:10.37,2013-10-11 06:38:00,
2013-10-11 02:43:00,55.4,54.8,30.00,East,90,0.0,0.0,98,0.20, +RA,,0.58,WeatherDisplay:10.37,2013-10-11 06:43:00,
2013-10-11 02:48:00,55.2,54.6,30.00,ESE,112,0.0,0.0,98,0.16, +RA,,0.58,WeatherDisplay:10.37,2013-10-11 06:48:00,
2013-10-11 02:53:00,55.2,54.6,30.00,ESE,112,0.0,0.0,98,0.16, +RA,,0.58,WeatherDisplay:10.37,2013-10-11 06:53:00,
2013-10-11 02:58:00,55.0,54.4,30.00,ENE,68,0.0,0.0,98,0.16, +RA,,0.58,WeatherDisplay:10.37,2013-10-11 06:58:00,
2013-10-11 03:03:00,55.0,54.4,29.99,NE,45,0.0,0.0,98,0.17,-RA,,0.61,WeatherDisplay:10.37,2013-10-11 07:03:00,
2013-10-11 03:08:00,55.0,54.4,29.99,East,90,0.0,0.0,98,0.17,-RA,,0.64,WeatherDisplay:10.37,2013-10-11 07:08:00,
2013-10-11 03:13:00,55.0,54.4,29.98,North,360,0.0,0.0,98,0.21,-RA,,0.74,WeatherDisplay:10.37,2013-10-11 07:13:00,
2013-10-11 03:18:00,55.0,54.4,29.98,SSE,158,0.0,0.0,98,0.25,-RA,,0.77,WeatherDisplay:10.37,2013-10-11 07:18:00,
2013-10-11 03:23:00,55.0,54.4,29.98,NW,315,0.0,0.0,98,0.25,-RA,,0.78,WeatherDisplay:10.37,2013-10-11 07:23:00,
2013-10-11 03:28:00,55.0,54.4,29.98,ENE,68,0.0,0.0,98,0.22,-RA,,0.78,WeatherDisplay:10.37,2013-10-11 07:28:00,
2013-10-11 03:33:00,55.0,54.4,29.98,ESE,112,0.0,0.0,98,0.22,-RA,,0.79,WeatherDisplay:10.37,2013-10-11 07:33:00,
2013-10-11 03:38:00,55.0,54.4,29.98,SSW,202,0.0,0.0,98,0.21,-RA,,0.79,WeatherDisplay:10.37,2013-10-11 07:38:00,
2013-10-11 03:43:00,55.0,54.4,29.98,SSW,202,0.0,0.0,98,0.21,-RA,,0.79,WeatherDisplay:10.37,2013-10-11 07:43:00,
2013-10-11 03:48:00,55.0,54.4,29.98,NW,315,0.0,0.0,98,0.22,-RA,,0.80,WeatherDisplay:10.37,2013-10-11 07:48:00,
2013-10-11 03:53:00,55.0,54.4,29.98,WNW,292,0.0,0.0,98,0.23,-RA,,0.82,WeatherDisplay:10.37,2013-10-11 07:53:00,
2013-10-11 03:58:00,55.0,54.4,29.98,SSW,202,0.0,0.0,98,0.28,-RA,,0.87,WeatherDisplay:10.37,2013-10-11 07:58:00,
2013-10-11 04:03:00,55.2,54.6,29.98,SSW,202,0.0,0.0,98,0.29,RA,,0.91,WeatherDisplay:10.37,2013-10-11 08:03:00,
2013-10-11 04:08:00,55.2,54.6,29.98,East,90,0.0,0.0,98,0.36,RA,,1.00,WeatherDisplay:10.37,2013-10-11 08:08:00,
2013-10-11 04:13:00,55.2,54.6,29.98,ESE,112,0.0,0.0,98,0.36,RA,,1.10,WeatherDisplay:10.37,2013-10-11 08:13:00,
2013-10-11 04:18:00,55.2,54.6,29.98,East,90,0.0,0.0,98,0.52,RA,,1.30,WeatherDisplay:10.37,2013-10-11 08:18:00,
2013-10-11 04:23:00,55.2,54.6,29.98,East,90,0.0,0.0,98,0.60,RA,,1.39,WeatherDisplay:10.37,2013-10-11 08:23:00,
2013-10-11 04:28:00,55.2,54.6,29.97,SE,135,0.0,0.0,98,0.68,RA,,1.46,WeatherDisplay:10.37,2013-10-11 08:28:00,
2013-10-11 04:33:00,55.2,54.6,29.97,WSW,248,0.0,0.0,98,0.72,RA,,1.51,WeatherDisplay:10.37,2013-10-11 08:33:00,
2013-10-11 04:38:00,55.2,54.6,29.99,SW,225,3.5,3.5,98,0.74, +RA,,1.53,WeatherDisplay:10.37,2013-10-11 08:38:00,
2013-10-11 04:43:00,55.2,54.6,29.99,NE,45,0.0,0.0,98,0.75, +RA,,1.54,WeatherDisplay:10.37,2013-10-11 08:43:00,
2013-10-11 04:48:00,55.2,54.6,29.99,East,90,0.0,0.0,98,0.85, +RA,,1.66,WeatherDisplay:10.37,2013-10-11 08:48:00,
2013-10-11 04:53:00,55.2,54.6,29.99,East,90,0.0,0.0,98,0.91, +RA,,1.74,WeatherDisplay:10.37,2013-10-11 08:53:00,
2013-10-11 04:58:00,55.2,54.6,29.99,ESE,112,0.0,0.0,98,0.95, +RA,,1.82,WeatherDisplay:10.37,2013-10-11 08:58:00,
2013-10-11 05:03:00,55.4,54.8,29.98,East,90,0.0,0.0,98,0.96,-RA,,1.86,WeatherDisplay:10.37,2013-10-11 09:03:00,
2013-10-11 05:08:00,55.4,54.8,29.98,ENE,68,2.7,2.7,98,0.89,-RA,,1.88,WeatherDisplay:10.37,2013-10-11 09:08:00,
2013-10-11 05:13:00,55.6,55.0,29.98,East,90,0.0,0.0,98,0.81,-RA,,1.90,WeatherDisplay:10.37,2013-10-11 09:13:00,
2013-10-11 05:18:00,55.6,55.0,29.98,East,90,0.0,0.0,98,0.63,-RA,,1.92,WeatherDisplay:10.37,2013-10-11 09:18:00,
2013-10-11 05:23:00,55.6,55.0,29.98,East,90,0.0,0.0,98,0.54,-RA,,1.92,WeatherDisplay:10.37,2013-10-11 09:23:00,
2013-10-11 05:28:00,55.6,55.0,29.98,East,90,0.0,0.0,98,0.46,-RA,,1.93,WeatherDisplay:10.37,2013-10-11 09:28:00,
2013-10-11 05:33:00,55.6,55.0,29.98,East,90,0.0,0.0,98,0.42,-RA,,1.93,WeatherDisplay:10.37,2013-10-11 09:33:00,
2013-10-11 05:38:00,55.6,55.0,29.98,SE,135,2.3,2.3,98,0.40,-RA,,1.93,WeatherDisplay:10.37,2013-10-11 09:38:00,
2013-10-11 05:43:00,55.6,55.0,29.98,SE,135,1.7,1.7,98,0.39,-RA,,1.93,WeatherDisplay:10.37,2013-10-11 09:43:00,
2013-10-11 05:48:00,55.6,55.0,29.98,SE,135,1.7,1.7,98,0.28,-RA,,1.93,WeatherDisplay:10.37,2013-10-11 09:48:00,
2013-10-11 05:53:00,55.6,55.0,29.98,SE,135,1.7,1.7,98,0.21,-RA,,1.93,WeatherDisplay:10.37,2013-10-11 09:53:00,
2013-10-11 05:58:00,55.6,55.0,29.98,SE,135,1.7,1.7,98,0.12,-RA,,1.93,WeatherDisplay:10.37,2013-10-11 09:58:00,
2013-10-11 06:03:00,55.6,55.0,29.98,SE,135,1.7,1.7,98,0.07,-RA,,1.93,WeatherDisplay:10.37,2013-10-11 10:03:00,
2013-10-11 06:08:00,55.6,55.0,29.98,SE,135,1.7,1.7,98,0.05,-RA,,1.93,WeatherDisplay:10.37,2013-10-11 10:08:00,
2013-10-11 06:13:00,55.6,55.0,29.98,SE,135,1.7,1.7,98,0.03,-RA,,1.93,WeatherDisplay:10.37,2013-10-11 10:13:00,
2013-10-11 06:18:00,55.6,55.0,29.98,SE,135,1.7,1.7,98,0.01,-RA,,1.93,WeatherDisplay:10.37,2013-10-11 10:18:00,
2013-10-11 06:23:00,55.6,55.0,29.98,SE,135,1.7,1.7,98,0.01,-RA,,1.93,WeatherDisplay:10.37,2013-10-11 10:23:00,
2013-10-11 06:28:00,55.6,55.0,29.98,SE,135,1.7,1.7,98,0.01,-RA,,1.93,WeatherDisplay:10.37,2013-10-11 10:28:00,
2013-10-11 06:33:00,55.6,55.0,29.98,SE,135,1.7,1.7,98,0.00,-RA,,1.93,WeatherDisplay:10.37,2013-10-11 10:33:00,
2013-10-11 06:38:00,55.6,55.0,29.98,SE,135,1.7,1.7,98,0.00,-RA,,1.93,WeatherDisplay:10.37,2013-10-11 10:38:00,
2013-10-11 06:43:00,55.6,55.0,29.98,SE,135,1.7,1.7,98,0.00,-RA,,1.93,WeatherDisplay:10.37,2013-10-11 10:43:00,
2013-10-11 06:48:00,55.6,55.0,29.98,SE,135,1.7,1.7,98,0.00,-RA,,1.93,WeatherDisplay:10.37,2013-10-11 10:48:00,
2013-10-11 06:53:00,55.6,55.0,29.98,SE,135,1.7,1.7,98,0.00,-RA,,1.93,WeatherDisplay:10.37,2013-10-11 10:53:00,
2013-10-11 06:58:00,55.6,55.0,29.98,SE,135,1.7,1.7,98,0.00,-RA,,1.93,WeatherDisplay:10.37,2013-10-11 10:58:00,
2013-10-11 07:03:00,55.6,55.0,29.98,SE,135,1.7,1.7,98,0.00,OVC,,1.93,WeatherDisplay:10.37,2013-10-11 11:03:00,
2013-10-11 07:08:00,55.6,55.0,29.98,SE,135,1.7,1.7,98,0.00,OVC,,1.93,WeatherDisplay:10.37,2013-10-11 11:08:00,
2013-10-11 07:13:00,55.6,55.0,29.98,SE,135,1.7,1.7,98,0.00,OVC,,1.93,WeatherDisplay:10.37,2013-10-11 11:13:00,
2013-10-11 07:18:00,55.6,55.0,29.98,SE,135,1.7,1.7,98,0.00,OVC,,1.93,WeatherDisplay:10.37,2013-10-11 11:18:00,
2013-10-11 07:23:00,55.6,55.0,29.98,SE,135,1.7,1.7,98,0.00,OVC,,1.93,WeatherDisplay:10.37,2013-10-11 11:23:00,
2013-10-11 07:28:00,55.6,55.0,29.98,SE,135,1.7,1.7,98,0.00,OVC,,1.93,WeatherDisplay:10.37,2013-10-11 11:28:00,
2013-10-11 07:34:00,55.6,55.0,29.98,SE,135,1.7,1.7,98,0.00,OVC,,1.93,WeatherDisplay:10.37,2013-10-11 11:34:00,
2013-10-11 07:39:00,55.6,55.0,29.98,SE,135,1.7,1.7,98,0.00,OVC,,1.93,WeatherDisplay:10.37,2013-10-11 11:39:00,
2013-10-11 07:44:00,55.6,55.0,29.98,SE,135,1.7,1.7,98,0.00,OVC,,1.93,WeatherDisplay:10.37,2013-10-11 11:44:00,
2013-10-11 07:49:00,55.6,55.0,29.98,SE,135,1.7,1.7,98,0.00,OVC,,1.93,WeatherDisplay:10.37,2013-10-11 11:49:00,
2013-10-11 07:54:00,55.6,55.0,29.98,SE,135,1.7,1.7,98,0.00,OVC,,1.93,WeatherDisplay:10.37,2013-10-11 11:54:00,
2013-10-11 07:59:00,55.6,55.0,29.98,SE,135,1.7,1.7,98,0.00,OVC,,1.93,WeatherDisplay:10.37,2013-10-11 11:59:00,
2013-10-11 08:04:00,55.6,55.0,29.98,SE,135,1.7,1.7,98,0.00,-RA,,1.93,WeatherDisplay:10.37,2013-10-11 12:04:00,
2013-10-11 08:09:00,55.6,55.0,29.98,SE,135,1.7,1.7,98,0.00,-RA,,1.93,WeatherDisplay:10.37,2013-10-11 12:09:00,
2013-10-11 08:14:00,55.6,55.0,29.98,SE,135,1.7,1.7,98,0.00,-RA,,1.93,WeatherDisplay:10.37,2013-10-11 12:14:00,
2013-10-11 08:19:00,55.6,55.0,29.98,SE,135,1.7,1.7,98,0.00,-RA,,1.93,WeatherDisplay:10.37,2013-10-11 12:19:00,
2013-10-11 08:24:00,55.6,55.0,29.98,SE,135,1.7,1.7,98,0.00,-RA,,1.93,WeatherDisplay:10.37,2013-10-11 12:24:00,
2013-10-11 08:29:00,55.6,55.0,29.98,SE,135,1.7,1.7,98,0.00,-RA,,1.93,WeatherDisplay:10.37,2013-10-11 12:29:00,
2013-10-11 08:34:00,55.6,55.0,29.98,SE,135,1.7,1.7,98,0.00,-RA,,1.93,WeatherDisplay:10.37,2013-10-11 12:34:00,
2013-10-11 08:39:00,55.6,55.0,29.98,SE,135,1.7,1.7,98,0.00, +RA,,1.93,WeatherDisplay:10.37,2013-10-11 12:39:00,
2013-10-11 08:44:00,55.6,55.0,29.98,SE,135,1.7,1.7,98,0.00, +RA,,1.93,WeatherDisplay:10.37,2013-10-11 12:44:00,
2013-10-11 08:49:00,55.6,55.0,29.98,SE,135,1.7,1.7,98,0.00, +RA,,1.93,WeatherDisplay:10.37,2013-10-11 12:49:00,
2013-10-11 08:54:00,55.6,55.0,29.98,SE,135,1.7,1.7,98,0.00, +RA,,1.93,WeatherDisplay:10.37,2013-10-11 12:54:00,
2013-10-11 08:59:00,55.6,55.0,29.98,SE,135,1.7,1.7,98,0.00, +RA,,1.93,WeatherDisplay:10.37,2013-10-11 12:59:00,
2013-10-11 09:04:00,55.6,55.0,29.98,SE,135,1.7,1.7,98,0.00, +RA,,1.93,WeatherDisplay:10.37,2013-10-11 13:04:00,
2013-10-11 09:09:00,55.6,55.0,29.98,SE,135,1.7,1.7,98,0.00, +RA,,1.93,WeatherDisplay:10.37,2013-10-11 13:09:00,
2013-10-11 09:14:00,55.6,55.0,29.98,SE,135,1.7,1.7,98,0.00, +RA,,1.93,WeatherDisplay:10.37,2013-10-11 13:14:00,
2013-10-11 09:19:00,55.6,55.0,29.98,SE,135,1.7,1.7,98,0.00, +RA,,1.93,WeatherDisplay:10.37,2013-10-11 13:19:00,
2013-10-11 09:24:00,55.6,55.0,29.98,SE,135,1.7,1.7,98,0.00, +RA,,1.93,WeatherDisplay:10.37,2013-10-11 13:24:00,
2013-10-11 09:29:00,55.6,55.0,29.98,SE,135,1.7,1.7,98,0.00, +RA,,1.93,WeatherDisplay:10.37,2013-10-11 13:29:00,
2013-10-11 09:34:00,55.6,55.0,29.98,SE,135,1.7,1.7,98,0.00, +RA,,1.93,WeatherDisplay:10.37,2013-10-11 13:34:00,
2013-10-11 09:39:00,55.6,55.0,29.98,SE,135,1.7,1.7,98,0.00, +RA,,1.93,WeatherDisplay:10.37,2013-10-11 13:39:00,
2013-10-11 09:44:00,55.6,55.0,29.98,SE,135,1.7,1.7,98,0.00, +RA,,1.93,WeatherDisplay:10.37,2013-10-11 13:44:00,
2013-10-11 09:49:00,55.6,55.0,29.98,SE,135,1.7,1.7,98,0.00, +RA,,1.93,WeatherDisplay:10.37,2013-10-11 13:49:00,
2013-10-11 09:54:00,55.6,55.0,29.98,SE,135,1.7,1.7,98,0.00, +RA,,1.93,WeatherDisplay:10.37,2013-10-11 13:54:00,
2013-10-11 09:59:00,55.6,55.0,29.98,SE,135,1.7,1.7,98,0.00, +RA,,1.93,WeatherDisplay:10.37,2013-10-11 13:59:00,
2013-10-11 10:04:00,55.6,55.0,29.98,SE,135,1.7,1.7,98,0.00, +RA,,1.93,WeatherDisplay:10.37,2013-10-11 14:04:00,
2013-10-11 10:09:00,55.6,55.0,29.98,SE,135,1.7,1.7,98,0.00, +RA,,1.93,WeatherDisplay:10.37,2013-10-11 14:09:00,
2013-10-11 10:14:00,55.6,55.0,29.98,SE,135,1.7,1.7,98,0.00, +RA,,1.93,WeatherDisplay:10.37,2013-10-11 14:14:00,
2013-10-11 10:19:00,55.6,55.0,29.98,SE,135,1.7,1.7,98,0.00, +RA,,1.93,WeatherDisplay:10.37,2013-10-11 14:19:00,
2013-10-11 10:24:00,55.6,55.0,29.98,SE,135,1.7,1.7,98,0.00, +RA,,1.93,WeatherDisplay:10.37,2013-10-11 14:24:00,
2013-10-11 10:29:00,55.6,55.0,29.98,SE,135,1.7,1.7,98,0.00, +RA,,1.93,WeatherDisplay:10.37,2013-10-11 14:29:00,
2013-10-11 10:34:00,55.6,55.0,29.98,SE,135,1.7,1.7,98,0.00, +RA,,1.93,WeatherDisplay:10.37,2013-10-11 14:34:00,
2013-10-11 10:39:00,55.6,55.0,29.98,SE,135,1.7,1.7,98,0.00,-RA,,1.93,WeatherDisplay:10.37,2013-10-11 14:39:00,
2013-10-11 10:44:00,55.6,55.0,29.98,SE,135,1.7,1.7,98,0.00,-RA,,1.93,WeatherDisplay:10.37,2013-10-11 14:44:00,
2013-10-11 10:49:00,55.6,55.0,29.98,SE,135,1.7,1.7,98,0.00,-RA,,1.93,WeatherDisplay:10.37,2013-10-11 14:49:00,
2013-10-11 10:54:00,55.6,55.0,29.98,SE,135,1.7,1.7,98,0.00,-RA,,1.93,WeatherDisplay:10.37,2013-10-11 14:54:00,
2013-10-11 10:59:00,55.6,55.0,29.98,SE,135,1.7,1.7,98,0.00,-RA,,1.93,WeatherDisplay:10.37,2013-10-11 14:59:00,
2013-10-11 11:04:00,55.6,55.0,29.98,SE,135,1.7,1.7,98,0.00,-RA,,1.93,WeatherDisplay:10.37,2013-10-11 15:04:00,
2013-10-11 11:09:00,55.6,55.0,29.98,SE,135,1.7,1.7,98,0.00,-RA,,1.93,WeatherDisplay:10.37,2013-10-11 15:09:00,
2013-10-11 11:14:00,55.6,55.0,29.98,SE,135,1.7,1.7,98,0.00,-RA,,1.93,WeatherDisplay:10.37,2013-10-11 15:14:00,
2013-10-11 11:19:00,55.6,55.0,29.98,SE,135,1.7,1.7,98,0.00,-RA,,1.93,WeatherDisplay:10.37,2013-10-11 15:19:00,
2013-10-11 11:24:00,55.6,55.0,29.98,SE,135,1.7,1.7,98,0.00,-RA,,1.93,WeatherDisplay:10.37,2013-10-11 15:24:00,
2013-10-11 11:29:00,55.6,55.0,29.98,SE,135,1.7,1.7,98,0.00,-RA,,1.93,WeatherDisplay:10.37,2013-10-11 15:29:00,
2013-10-11 11:34:00,55.6,55.0,29.98,SE,135,1.7,1.7,98,0.00,-RA,,1.93,WeatherDisplay:10.37,2013-10-11 15:34:00,
2013-10-11 11:39:00,55.6,55.0,29.98,SE,135,1.7,1.7,98,0.00,OVC,,1.93,WeatherDisplay:10.37,2013-10-11 15:39:00,
2013-10-11 11:44:00,55.6,55.0,29.98,SE,135,1.7,1.7,98,0.00,OVC,,1.93,WeatherDisplay:10.37,2013-10-11 15:44:00,
2013-10-11 11:49:00,55.6,55.0,29.98,SE,135,1.7,1.7,98,0.00,OVC,,1.93,WeatherDisplay:10.37,2013-10-11 15:49:00,
2013-10-11 11:54:00,55.6,55.0,29.98,SE,135,1.7,1.7,98,0.00,OVC,,1.93,WeatherDisplay:10.37,2013-10-11 15:54:00,
2013-10-11 11:59:00,55.6,55.0,29.98,SE,135,1.7,1.7,98,0.00,OVC,,1.93,WeatherDisplay:10.37,2013-10-11 15:59:00,
2013-10-11 12:04:00,55.6,55.0,29.98,SE,135,1.7,1.7,98,0.00,OVC,,1.93,WeatherDisplay:10.37,2013-10-11 16:04:00,
2013-10-11 12:09:00,55.6,55.0,29.98,SE,135,1.7,1.7,98,0.00,OVC,,1.93,WeatherDisplay:10.37,2013-10-11 16:09:00,
2013-10-11 12:14:00,55.6,55.0,29.98,SE,135,1.7,1.7,98,0.00,OVC,,1.93,WeatherDisplay:10.37,2013-10-11 16:14:00,
2013-10-11 12:19:00,55.6,55.0,29.98,SE,135,1.7,1.7,98,0.00,OVC,,1.93,WeatherDisplay:10.37,2013-10-11 16:19:00,
2013-10-11 12:24:00,55.6,55.0,29.98,SE,135,1.7,1.7,98,0.00,OVC,,1.93,WeatherDisplay:10.37,2013-10-11 16:24:00,
2013-10-11 12:29:00,55.6,55.0,29.98,SE,135,1.7,1.7,98,0.00,OVC,,1.93,WeatherDisplay:10.37,2013-10-11 16:29:00,
2013-10-11 12:35:00,55.6,55.0,29.98,SE,135,1.7,1.7,98,0.00,OVC,,1.93,WeatherDisplay:10.37,2013-10-11 16:35:00,
2013-10-11 12:40:00,55.6,55.0,29.98,SE,135,1.7,1.7,98,0.00,OVC,,1.93,WeatherDisplay:10.37,2013-10-11 16:40:00,
2013-10-11 12:45:00,55.6,55.0,29.98,SE,135,1.7,1.7,98,0.00,OVC,,1.93,WeatherDisplay:10.37,2013-10-11 16:45:00,
2013-10-11 12:50:00,55.6,55.0,29.98,SE,135,1.0,0.0,98,0.00,OVC,,1.93,WeatherDisplay:10.37,2013-10-11 16:50:00,
2013-10-11 12:55:00,55.6,55.0,29.98,SE,135,1.0,0.0,98,0.00,OVC,,1.93,WeatherDisplay:10.37,2013-10-11 16:55:00,
2013-10-11 13:00:00,55.6,55.0,29.98,SE,135,1.7,1.7,98,0.00,OVC,,1.93,WeatherDisplay:10.37,2013-10-11 17:00:00,
2013-10-11 13:04:00,55.6,55.0,29.98,SE,135,1.7,1.7,98,0.00,OVC,,1.93,WeatherDisplay:10.37,2013-10-11 17:04:00,
2013-10-11 13:09:00,55.6,55.0,29.98,SE,135,1.7,1.7,98,0.00,OVC,,1.93,WeatherDisplay:10.37,2013-10-11 17:09:00,
2013-10-11 13:15:00,55.6,55.0,29.98,SE,135,1.7,1.7,98,0.00,OVC,,1.93,WeatherDisplay:10.37,2013-10-11 17:15:00,
2013-10-11 13:20:00,55.6,55.0,29.98,SE,135,1.0,0.0,98,0.00,OVC,,1.93,WeatherDisplay:10.37,2013-10-11 17:20:00,
2013-10-11 13:24:00,55.6,55.0,29.98,SE,135,1.7,1.7,98,0.00,OVC,,1.93,WeatherDisplay:10.37,2013-10-11 17:24:00,
2013-10-11 13:30:00,55.6,55.0,29.98,SE,135,1.0,0.0,98,0.00,OVC,,1.93,WeatherDisplay:10.37,2013-10-11 17:30:00,
2013-10-11 13:35:00,55.6,55.0,29.98,SE,135,1.0,0.0,98,0.00,OVC,,1.93,WeatherDisplay:10.37,2013-10-11 17:35:00,
2013-10-11 13:39:00,55.6,55.0,29.98,SE,135,1.7,1.7,98,0.00,OVC,,1.93,WeatherDisplay:10.37,2013-10-11 17:39:00,
2013-10-11 13:45:00,55.6,55.0,29.98,SE,135,1.7,1.7,98,0.00,OVC,,1.93,WeatherDisplay:10.37,2013-10-11 17:45:00,
2013-10-11 13:50:00,55.6,55.0,29.98,SE,135,1.0,0.0,98,0.00,OVC,,1.93,WeatherDisplay:10.37,2013-10-11 17:50:00,
2013-10-11 13:55:00,55.6,55.0,29.98,SE,135,1.0,0.0,98,0.00,OVC,,1.93,WeatherDisplay:10.37,2013-10-11 17:55:00,
2013-10-11 14:00:00,55.6,55.0,29.98,SE,135,1.0,0.0,98,0.00,OVC,,1.93,WeatherDisplay:10.37,2013-10-11 18:00:00,
2013-10-11 14:04:00,55.6,55.0,29.98,SE,135,1.7,1.7,98,0.00,-RA,,1.93,WeatherDisplay:10.37,2013-10-11 18:04:00,
2013-10-11 14:10:00,55.6,55.0,29.98,SE,135,1.7,1.7,98,0.00,-RA,,1.93,WeatherDisplay:10.37,2013-10-11 18:10:00,
2013-10-11 14:15:00,55.6,55.0,29.98,SE,135,1.0,0.0,98,0.00,-RA,,1.93,WeatherDisplay:10.37,2013-10-11 18:15:00,
2013-10-11 14:20:00,55.6,55.0,29.98,SE,135,1.7,1.7,98,0.00,-RA,,1.93,WeatherDisplay:10.37,2013-10-11 18:20:00,
2013-10-11 14:25:00,55.6,55.0,29.98,SE,135,1.7,1.7,98,0.00,-RA,,1.93,WeatherDisplay:10.37,2013-10-11 18:25:00,
2013-10-11 14:30:00,55.6,55.0,29.98,SE,135,1.0,0.0,98,0.00,-RA,,1.93,WeatherDisplay:10.37,2013-10-11 18:30:00,
2013-10-11 14:35:00,55.6,55.0,29.98,SE,135,1.0,0.0,98,0.00,-RA,,1.93,WeatherDisplay:10.37,2013-10-11 18:35:00,
2013-10-11 14:40:00,55.6,55.0,29.98,SE,135,1.7,1.7,98,0.00,-RA,,1.93,WeatherDisplay:10.37,2013-10-11 18:40:00,
2013-10-11 14:45:00,55.6,55.0,29.98,SE,135,1.0,0.0,98,0.00,-RA,,1.93,WeatherDisplay:10.37,2013-10-11 18:45:00,
2013-10-11 14:50:00,55.6,55.0,29.98,SE,135,1.0,0.0,98,0.00,-RA,,1.93,WeatherDisplay:10.37,2013-10-11 18:50:00,
2013-10-11 14:55:00,55.6,55.0,29.98,SE,135,1.7,1.7,98,0.00,-RA,,1.93,WeatherDisplay:10.37,2013-10-11 18:55:00,
2013-10-11 15:00:00,55.6,55.0,29.98,SE,135,1.0,0.0,98,0.00,-RA,,1.93,WeatherDisplay:10.37,2013-10-11 19:00:00,
2013-10-11 15:05:00,55.6,55.0,29.98,SE,135,1.7,1.7,98,0.00,-RA,,1.93,WeatherDisplay:10.37,2013-10-11 19:05:00,
2013-10-11 15:10:00,55.6,55.0,29.98,SE,135,1.7,1.7,98,0.00,-RA,,1.93,WeatherDisplay:10.37,2013-10-11 19:10:00,
2013-10-11 15:15:00,55.6,55.0,29.98,SE,135,1.0,0.0,98,0.00,-RA,,1.93,WeatherDisplay:10.37,2013-10-11 19:15:00,
2013-10-11 15:20:00,55.6,55.0,29.98,SE,135,1.7,1.7,98,0.00,-RA,,1.93,WeatherDisplay:10.37,2013-10-11 19:20:00,
2013-10-11 15:25:00,55.6,55.0,29.98,SE,135,1.7,1.7,98,0.00,-RA,,1.93,WeatherDisplay:10.37,2013-10-11 19:25:00,
2013-10-11 15:30:00,55.6,55.0,29.98,SE,135,1.0,0.0,98,0.00,-RA,,1.93,WeatherDisplay:10.37,2013-10-11 19:30:00,
2013-10-11 15:35:00,55.6,55.0,29.98,SE,135,1.7,1.7,98,0.00,-RA,,1.93,WeatherDisplay:10.37,2013-10-11 19:35:00,
2013-10-11 15:40:00,55.6,55.0,29.98,SE,135,1.0,0.0,98,0.00,-RA,,1.93,WeatherDisplay:10.37,2013-10-11 19:40:00,
2013-10-11 15:45:00,55.6,55.0,29.98,SE,135,1.0,0.0,98,0.00,-RA,,1.93,WeatherDisplay:10.37,2013-10-11 19:45:00,
2013-10-11 15:50:00,55.6,55.0,29.98,SE,135,1.7,1.7,98,0.00,-RA,,1.93,WeatherDisplay:10.37,2013-10-11 19:50:00,
2013-10-11 15:55:00,55.6,55.0,29.98,SE,135,1.0,0.0,98,0.00,-RA,,1.93,WeatherDisplay:10.37,2013-10-11 19:55:00,
2013-10-11 16:00:00,55.6,55.0,29.98,SE,135,1.0,0.0,98,0.00,-RA,,1.93,WeatherDisplay:10.37,2013-10-11 20:00:00,
2013-10-11 16:05:00,55.6,55.0,29.98,SE,135,1.7,1.7,98,0.00, +RA,,1.93,WeatherDisplay:10.37,2013-10-11 20:05:00,
2013-10-11 16:10:00,55.6,55.0,29.98,SE,135,1.0,0.0,98,0.00, +RA,,1.93,WeatherDisplay:10.37,2013-10-11 20:10:00,
2013-10-11 16:15:00,55.6,55.0,29.98,SE,135,1.7,1.7,98,0.00, +RA,,1.93,WeatherDisplay:10.37,2013-10-11 20:15:00,
2013-10-11 16:20:00,55.6,55.0,29.98,SE,135,1.7,1.7,98,0.00, +RA,,1.93,WeatherDisplay:10.37,2013-10-11 20:20:00,
2013-10-11 16:25:00,55.6,55.0,29.98,SE,135,1.0,0.0,98,0.00, +RA,,1.93,WeatherDisplay:10.37,2013-10-11 20:25:00,
2013-10-11 16:30:00,55.6,55.0,29.98,SE,135,1.7,1.7,98,0.00, +RA,,1.93,WeatherDisplay:10.37,2013-10-11 20:30:00,
2013-10-11 16:35:00,55.6,55.0,29.98,SE,135,1.7,1.7,98,0.00, +RA,,1.93,WeatherDisplay:10.37,2013-10-11 20:35:00,
2013-10-11 16:40:00,55.6,55.0,29.98,SE,135,1.7,1.7,98,0.00, +RA,,1.93,WeatherDisplay:10.37,2013-10-11 20:40:00,
2013-10-11 16:45:00,55.6,55.0,29.98,SE,135,1.0,0.0,98,0.00, +RA,,1.93,WeatherDisplay:10.37,2013-10-11 20:45:00,
2013-10-11 16:50:00,55.6,55.0,29.98,SE,135,1.7,1.7,98,0.00, +RA,,1.93,WeatherDisplay:10.37,2013-10-11 20:50:00,
2013-10-11 16:55:00,55.6,55.0,29.98,SE,135,1.0,0.0,98,0.00, +RA,,1.93,WeatherDisplay:10.37,2013-10-11 20:55:00,
2013-10-11 17:00:00,55.6,55.0,29.98,SE,135,1.7,1.7,98,0.00, +RA,,1.93,WeatherDisplay:10.37,2013-10-11 21:00:00,
2013-10-11 17:05:00,55.6,55.0,29.98,SE,135,1.0,0.0,98,0.00, +RA,,1.93,WeatherDisplay:10.37,2013-10-11 21:05:00,
2013-10-11 17:09:00,55.6,55.0,29.98,SE,135,1.7,1.7,98,0.00, +RA,,1.93,WeatherDisplay:10.37,2013-10-11 21:09:00,
2013-10-11 17:14:00,55.6,55.0,29.98,SE,135,1.7,1.7,98,0.00, +RA,,1.93,WeatherDisplay:10.37,2013-10-11 21:14:00,
2013-10-11 17:19:00,55.6,55.0,29.98,SE,135,1.7,1.7,98,0.00, +RA,,1.93,WeatherDisplay:10.37,2013-10-11 21:19:00,
2013-10-11 17:25:00,55.6,55.0,29.98,SE,135,1.7,1.7,98,0.00, +RA,,1.93,WeatherDisplay:10.37,2013-10-11 21:25:00,
2013-10-11 17:30:00,55.6,55.0,29.98,SE,135,1.0,0.0,98,0.00, +RA,,1.93,WeatherDisplay:10.37,2013-10-11 21:30:00,
2013-10-11 17:35:00,55.6,55.0,29.98,SE,135,1.0,0.0,98,0.00, +RA,,1.93,WeatherDisplay:10.37,2013-10-11 21:35:00,
2013-10-11 17:40:00,55.6,55.0,29.98,SE,135,1.7,1.7,98,0.00,-RA,,1.93,WeatherDisplay:10.37,2013-10-11 21:40:00,
2013-10-11 17:45:00,55.6,55.0,29.98,SE,135,1.0,0.0,98,0.00,-RA,,1.93,WeatherDisplay:10.37,2013-10-11 21:45:00,
2013-10-11 17:50:00,55.6,55.0,29.98,SE,135,1.0,0.0,98,0.00,-RA,,1.93,WeatherDisplay:10.37,2013-10-11 21:50:00,
2013-10-11 17:55:00,55.6,55.0,29.98,SE,135,1.7,1.7,98,0.00,-RA,,1.93,WeatherDisplay:10.37,2013-10-11 21:55:00,
2013-10-11 18:00:00,55.6,55.0,29.98,SE,135,1.0,0.0,98,0.00,-RA,,1.93,WeatherDisplay:10.37,2013-10-11 22:00:00,
2013-10-11 18:05:00,55.6,55.0,29.98,SE,135,1.7,1.7,98,0.00,-RA,,1.93,WeatherDisplay:10.37,2013-10-11 22:05:00,
2013-10-11 18:10:00,55.6,55.0,29.98,SE,135,1.0,0.0,98,0.00,-RA,,1.93,WeatherDisplay:10.37,2013-10-11 22:10:00,
2013-10-11 18:15:00,55.6,55.0,29.98,SE,135,1.0,0.0,98,0.00,-RA,,1.93,WeatherDisplay:10.37,2013-10-11 22:15:00,
2013-10-11 18:20:00,55.6,55.0,29.98,SE,135,1.7,1.7,98,0.00,-RA,,1.93,WeatherDisplay:10.37,2013-10-11 22:20:00,
2013-10-11 18:25:00,55.6,55.0,29.98,SE,135,1.7,1.7,98,0.00,-RA,,1.93,WeatherDisplay:10.37,2013-10-11 22:25:00,
2013-10-11 18:30:00,55.6,55.0,29.98,SE,135,1.0,0.0,98,0.00,-RA,,1.93,WeatherDisplay:10.37,2013-10-11 22:30:00,
2013-10-11 18:35:00,55.6,55.0,29.98,SE,135,1.7,1.7,98,0.00,-RA,,1.93,WeatherDisplay:10.37,2013-10-11 22:35:00,
2013-10-11 18:40:00,55.6,55.0,29.98,SE,135,1.0,0.0,98,0.00,-RA,,1.93,WeatherDisplay:10.37,2013-10-11 22:40:00,
2013-10-11 18:45:00,55.6,55.0,29.98,SE,135,1.0,0.0,98,0.00,-RA,,1.93,WeatherDisplay:10.37,2013-10-11 22:45:00,
2013-10-11 18:50:00,55.6,55.0,29.98,SE,135,1.7,1.7,98,0.00,-RA,,1.93,WeatherDisplay:10.37,2013-10-11 22:50:00,
2013-10-11 18:55:00,55.6,55.0,29.98,SE,135,1.0,0.0,98,0.00,-RA,,1.93,WeatherDisplay:10.37,2013-10-11 22:55:00,
2013-10-11 19:00:00,55.6,55.0,29.98,SE,135,1.0,0.0,98,0.00,-RA,,1.93,WeatherDisplay:10.37,2013-10-11 23:00:00,
2013-10-11 19:05:00,55.6,55.0,29.98,SE,135,1.7,1.7,98,0.00,OVC,,1.93,WeatherDisplay:10.37,2013-10-11 23:05:00,
2013-10-11 19:10:00,55.6,55.0,29.98,SE,135,1.0,0.0,98,0.00,OVC,,1.93,WeatherDisplay:10.37,2013-10-11 23:10:00,
2013-10-11 19:15:00,55.6,55.0,29.98,SE,135,1.0,0.0,98,0.00,OVC,,1.93,WeatherDisplay:10.37,2013-10-11 23:15:00,
2013-10-11 19:20:00,55.6,55.0,29.98,SE,135,1.7,1.7,98,0.00,OVC,,1.93,WeatherDisplay:10.37,2013-10-11 23:20:00,
2013-10-11 19:24:00,55.6,55.0,29.98,SE,135,1.7,1.7,98,0.00,OVC,,1.93,WeatherDisplay:10.37,2013-10-11 23:24:00,
2013-10-11 19:30:00,55.6,55.0,29.98,SE,135,1.7,1.7,98,0.00,OVC,,1.93,WeatherDisplay:10.37,2013-10-11 23:30:00,
2013-10-11 19:35:00,55.6,55.0,29.98,SE,135,1.7,1.7,98,0.00,OVC,,1.93,WeatherDisplay:10.37,2013-10-11 23:35:00,
2013-10-11 19:40:00,55.6,55.0,29.98,SE,135,1.0,0.0,98,0.00,OVC,,1.93,WeatherDisplay:10.37,2013-10-11 23:40:00,
2013-10-11 19:45:00,55.6,55.0,29.98,SE,135,1.7,1.7,98,0.00,OVC,,1.93,WeatherDisplay:10.37,2013-10-11 23:45:00,
2013-10-11 19:50:00,55.6,55.0,29.98,SE,135,1.7,1.7,98,0.00,OVC,,1.93,WeatherDisplay:10.37,2013-10-11 23:50:00,
2013-10-11 19:55:00,55.6,55.0,29.98,SE,135,1.0,0.0,98,0.00,OVC,,1.93,WeatherDisplay:10.37,2013-10-11 23:55:00,
2013-10-11 20:00:00,55.6,55.0,29.98,SE,135,1.7,1.7,98,0.00,OVC,,1.93,WeatherDisplay:10.37,2013-10-12 00:00:00,
2013-10-11 20:05:00,55.6,55.0,29.98,SE,135,1.7,1.7,98,0.00,-RA,,1.93,WeatherDisplay:10.37,2013-10-12 00:05:00,
2013-10-11 20:10:00,55.6,55.0,29.98,SE,135,1.0,0.0,98,0.00,-RA,,1.93,WeatherDisplay:10.37,2013-10-12 00:10:00,
2013-10-11 20:15:00,55.6,55.0,29.98,SE,135,1.7,1.7,98,0.00,-RA,,1.93,WeatherDisplay:10.37,2013-10-12 00:15:00,
2013-10-11 20:20:00,55.6,55.0,29.98,SE,135,1.0,0.0,98,0.00,-RA,,1.93,WeatherDisplay:10.37,2013-10-12 00:20:00,
2013-10-11 20:24:00,55.6,55.0,29.98,SE,135,1.7,1.7,98,0.00,-RA,,1.93,WeatherDisplay:10.37,2013-10-12 00:24:00,
2013-10-11 20:29:00,55.6,55.0,29.98,SE,135,1.7,1.7,98,0.00,-RA,,1.93,WeatherDisplay:10.37,2013-10-12 00:29:00,
2013-10-11 20:34:00,55.6,55.0,29.98,SE,135,1.7,1.7,98,0.00,-RA,,1.93,WeatherDisplay:10.37,2013-10-12 00:34:00,
2013-10-11 20:40:00,55.6,55.0,29.98,SE,135,1.7,1.7,98,0.00,-RA,,1.93,WeatherDisplay:10.37,2013-10-12 00:40:00,
2013-10-11 20:45:00,55.6,55.0,29.98,SE,135,1.0,0.0,98,0.00,-RA,,1.93,WeatherDisplay:10.37,2013-10-12 00:45:00,
2013-10-11 20:49:00,55.6,55.0,29.98,SE,135,1.7,1.7,98,0.00,-RA,,1.93,WeatherDisplay:10.37,2013-10-12 00:49:00,
2013-10-11 20:55:00,55.6,55.0,29.98,SE,135,1.7,1.7,98,0.00,-RA,,1.93,WeatherDisplay:10.37,2013-10-12 00:55:00,
2013-10-11 21:00:00,55.6,55.0,29.98,SE,135,1.7,1.7,98,0.00,-RA,,1.93,WeatherDisplay:10.37,2013-10-12 01:00:00,
2013-10-11 21:05:00,55.6,55.0,29.98,SE,135,1.0,0.0,98,0.00,OVC,,1.93,WeatherDisplay:10.37,2013-10-12 01:05:00,
2013-10-11 21:10:00,55.6,55.0,29.98,SE,135,1.7,1.7,98,0.00,OVC,,1.93,WeatherDisplay:10.37,2013-10-12 01:10:00,
2013-10-11 21:15:00,55.6,55.0,29.98,SE,135,1.0,0.0,98,0.00,OVC,,1.93,WeatherDisplay:10.37,2013-10-12 01:15:00,
2013-10-11 21:20:00,55.6,55.0,29.98,SE,135,1.0,0.0,98,0.00,OVC,,1.93,WeatherDisplay:10.37,2013-10-12 01:20:00,
2013-10-11 21:25:00,55.6,55.0,29.98,SE,135,1.7,1.7,98,0.00,OVC,,1.93,WeatherDisplay:10.37,2013-10-12 01:25:00,
2013-10-11 21:29:00,55.6,55.0,29.98,SE,135,1.7,1.7,98,0.00,OVC,,1.93,WeatherDisplay:10.37,2013-10-12 01:29:00,
2013-10-11 21:35:00,55.6,55.0,29.98,SE,135,1.7,1.7,98,0.00,OVC,,1.93,WeatherDisplay:10.37,2013-10-12 01:35:00,
2013-10-11 21:40:00,55.6,55.0,29.98,SE,135,1.0,0.0,98,0.00,OVC,,1.93,WeatherDisplay:10.37,2013-10-12 01:40:00,
2013-10-11 21:44:00,55.6,55.0,29.98,SE,135,1.7,1.7,98,0.00,OVC,,1.93,WeatherDisplay:10.37,2013-10-12 01:44:00,
2013-10-11 21:50:00,55.6,55.0,29.98,SE,135,1.7,1.7,98,0.00,OVC,,1.93,WeatherDisplay:10.37,2013-10-12 01:50:00,
2013-10-11 21:55:00,55.6,55.0,29.98,SE,135,1.0,0.0,98,0.00,OVC,,1.93,WeatherDisplay:10.37,2013-10-12 01:55:00,
2013-10-11 22:00:00,55.6,55.0,29.98,SE,135,1.0,0.0,98,0.00,OVC,,1.93,WeatherDisplay:10.37,2013-10-12 02:00:00,
2013-10-11 22:05:00,55.6,55.0,29.98,SE,135,1.7,1.7,98,0.00,OVC,,1.93,WeatherDisplay:10.37,2013-10-12 02:05:00,
2013-10-11 22:10:00,55.6,55.0,29.98,SE,135,1.0,0.0,98,0.00,OVC,,1.93,WeatherDisplay:10.37,2013-10-12 02:10:00,
2013-10-11 22:15:00,55.6,55.0,29.98,SE,135,1.0,0.0,98,0.00,OVC,,1.93,WeatherDisplay:10.37,2013-10-12 02:15:00,
2013-10-11 22:20:00,55.6,55.0,29.98,SE,135,1.7,1.7,98,0.00,OVC,,1.93,WeatherDisplay:10.37,2013-10-12 02:20:00,
2013-10-11 22:25:00,55.6,55.0,29.98,SE,135,1.7,1.7,98,0.00,OVC,,1.93,WeatherDisplay:10.37,2013-10-12 02:25:00,
2013-10-11 22:30:00,55.6,55.0,29.98,SE,135,1.0,0.0,98,0.00,OVC,,1.93,WeatherDisplay:10.37,2013-10-12 02:30:00,
2013-10-11 22:35:00,55.6,55.0,29.98,SE,135,1.7,1.7,98,0.00,OVC,,1.93,WeatherDisplay:10.37,2013-10-12 02:35:00,
2013-10-11 22:40:00,55.6,55.0,29.98,SE,135,1.0,0.0,98,0.00,OVC,,1.93,WeatherDisplay:10.37,2013-10-12 02:40:00,
2013-10-11 22:45:00,55.6,55.0,29.98,SE,135,1.7,1.7,98,0.00,OVC,,1.93,WeatherDisplay:10.37,2013-10-12 02:45:00,
2013-10-11 22:50:00,55.6,55.0,29.98,SE,135,1.7,1.7,98,0.00,OVC,,1.93,WeatherDisplay:10.37,2013-10-12 02:50:00,
2013-10-11 22:55:00,55.6,55.0,29.98,SE,135,1.0,0.0,98,0.00,OVC,,1.93,WeatherDisplay:10.37,2013-10-12 02:55:00,
2013-10-11 23:00:00,55.6,55.0,29.98,SE,135,1.7,1.7,98,0.00,OVC,,1.93,WeatherDisplay:10.37,2013-10-12 03:00:00,
2013-10-11 23:05:00,55.6,55.0,29.98,SE,135,1.0,0.0,98,0.00,OVC,,1.93,WeatherDisplay:10.37,2013-10-12 03:05:00,
2013-10-11 23:10:00,55.6,55.0,29.98,SE,135,1.0,0.0,98,0.00,OVC,,1.93,WeatherDisplay:10.37,2013-10-12 03:10:00,
2013-10-11 23:15:00,55.6,55.0,29.98,SE,135,1.7,1.7,98,0.00,OVC,,1.93,WeatherDisplay:10.37,2013-10-12 03:15:00,
2013-10-11 23:20:00,55.6,55.0,29.98,SE,135,1.0,0.0,98,0.00,OVC,,1.93,WeatherDisplay:10.37,2013-10-12 03:20:00,
2013-10-11 23:25:00,55.6,55.0,29.98,SE,135,1.0,0.0,98,0.00,OVC,,1.93,WeatherDisplay:10.37,2013-10-12 03:25:00,
2013-10-11 23:30:00,55.6,55.0,29.98,SE,135,1.7,1.7,98,0.00,OVC,,1.93,WeatherDisplay:10.37,2013-10-12 03:30:00,
2013-10-11 23:35:00,55.6,55.0,29.98,SE,135,1.0,0.0,98,0.00,OVC,,1.93,WeatherDisplay:10.37,2013-10-12 03:35:00,
2013-10-11 23:40:00,55.6,55.0,29.98,SE,135,1.7,1.7,98,0.00,OVC,,1.93,WeatherDisplay:10.37,2013-10-12 03:40:00,
2013-10-11 23:45:00,55.6,55.0,29.98,SE,135,1.7,1.7,98,0.00,OVC,,1.93,WeatherDisplay:10.37,2013-10-12 03:45:00,
2013-10-11 23:50:00,55.6,55.0,29.98,SE,135,1.0,0.0,98,0.00,OVC,,1.93,WeatherDisplay:10.37,2013-10-12 03:50:00,
2013-10-11 23:55:00,55.6,55.0,29.98,SE,135,1.7,1.7,98,0.00,OVC,,1.93,WeatherDisplay:10.37,2013-10-12 03:55:00,